EZY5YR EDDH-EHAM
Flight info
| Callsign | EZY5YR |
|---|---|
| Flight time | N/A |
| Altitude | 26000 |
| Route | WSN5C WSN N125 BLUFA |
| Aircraft | A20N/M-SDE2E3FGHIRWXY/LB1 |
Departure
| Time | 2026-05-07 13:40 |
|---|---|
| Airport | Hamburg Helmut Schmidt Airport (EDDH) |
Arrival
| Time | N/A |
|---|---|
| Airport | Amsterdam Airport Schiphol (EHAM) |
| Time | Latitude | Longitude | Altitude | Speed | Heading |
|---|---|---|---|---|---|
| 2026-05-07 13:07 | 53.63292 | 10.00356 | 52 ft | 0 kts | 87° |
| 2026-05-07 13:27 | 53.63292 | 10.00340 | 51 ft | 2 kts | 87° |
| 2026-05-07 13:27 | 53.63291 | 10.00312 | 51 ft | 2 kts | 88° |
| 2026-05-07 13:27 | 53.63291 | 10.00284 | 51 ft | 2 kts | 89° |
| 2026-05-07 13:27 | 53.63291 | 10.00256 | 51 ft | 2 kts | 91° |
| 2026-05-07 13:28 | 53.63291 | 10.00229 | 51 ft | 2 kts | 94° |
| 2026-05-07 13:28 | 53.63293 | 10.00201 | 51 ft | 2 kts | 103° |
| 2026-05-07 13:28 | 53.63300 | 10.00176 | 46 ft | 2 kts | 136° |
| 2026-05-07 13:28 | 53.63311 | 10.00166 | 46 ft | 1 kts | 172° |
| 2026-05-07 13:29 | 53.63312 | 10.00166 | 46 ft | 0 kts | 173° |
| 2026-05-07 13:31 | 53.63307 | 10.00167 | 46 ft | 3 kts | 173° |
| 2026-05-07 13:31 | 53.63258 | 10.00175 | 51 ft | 10 kts | 175° |
| 2026-05-07 13:32 | 53.63183 | 10.00182 | 51 ft | 11 kts | 175° |
| 2026-05-07 13:32 | 53.63117 | 10.00191 | 51 ft | 9 kts | 175° |
| 2026-05-07 13:32 | 53.63065 | 10.00175 | 49 ft | 7 kts | 209° |
| 2026-05-07 13:32 | 53.63022 | 10.00135 | 51 ft | 7 kts | 211° |
| 2026-05-07 13:33 | 53.62979 | 10.00087 | 51 ft | 8 kts | 213° |
| 2026-05-07 13:33 | 53.62931 | 10.00035 | 51 ft | 8 kts | 207° |
| 2026-05-07 13:33 | 53.62887 | 10.00037 | 51 ft | 5 kts | 184° |
| 2026-05-07 13:33 | 53.62880 | 10.00034 | 51 ft | 0 kts | 196° |
| 2026-05-07 13:34 | 53.62867 | 10.00024 | 51 ft | 3 kts | 207° |
| 2026-05-07 13:34 | 53.62826 | 9.99985 | 51 ft | 5 kts | 210° |
| 2026-05-07 13:34 | 53.62795 | 9.99953 | 50 ft | 6 kts | 211° |
| 2026-05-07 13:35 | 53.62755 | 9.99914 | 49 ft | 8 kts | 209° |
| 2026-05-07 13:35 | 53.62711 | 9.99874 | 47 ft | 7 kts | 208° |
| 2026-05-07 13:35 | 53.62670 | 9.99837 | 47 ft | 6 kts | 208° |
| 2026-05-07 13:35 | 53.62643 | 9.99787 | 49 ft | 5 kts | 244° |
| 2026-05-07 13:36 | 53.62638 | 9.99758 | 50 ft | 3 kts | 257° |
| 2026-05-07 13:36 | 53.62633 | 9.99712 | 50 ft | 6 kts | 259° |
| 2026-05-07 13:36 | 53.62622 | 9.99615 | 46 ft | 9 kts | 259° |
| 2026-05-07 13:36 | 53.62609 | 9.99502 | 50 ft | 12 kts | 259° |
| 2026-05-07 13:37 | 53.62580 | 9.99247 | 50 ft | 21 kts | 259° |
| 2026-05-07 13:37 | 53.62550 | 9.98988 | 50 ft | 24 kts | 259° |
| 2026-05-07 13:37 | 53.62520 | 9.98715 | 47 ft | 23 kts | 259° |
| 2026-05-07 13:37 | 53.62490 | 9.98451 | 50 ft | 22 kts | 259° |
| 2026-05-07 13:38 | 53.62471 | 9.98284 | 50 ft | 22 kts | 260° |
| 2026-05-07 13:38 | 53.62414 | 9.98059 | 50 ft | 20 kts | 231° |
| 2026-05-07 13:38 | 53.62324 | 9.97878 | 50 ft | 20 kts | 230° |
| 2026-05-07 13:38 | 53.62238 | 9.97702 | 50 ft | 19 kts | 230° |
| 2026-05-07 13:39 | 53.62180 | 9.97515 | 50 ft | 18 kts | 271° |
| 2026-05-07 13:39 | 53.62259 | 9.97366 | 43 ft | 20 kts | 350° |
| 2026-05-07 13:39 | 53.62360 | 9.97449 | 43 ft | 1 kts | 51° |
| 2026-05-07 13:39 | 53.62371 | 9.97471 | 43 ft | 14 kts | 51° |
| 2026-05-07 13:40 | 53.62581 | 9.97900 | 44 ft | 85 kts | 50° |
| 2026-05-07 13:40 | 53.63132 | 9.99012 | 61 ft | 158 kts | 50° |
| 2026-05-07 13:40 | 53.63862 | 10.00483 | 734 ft | 170 kts | 51° |
| 2026-05-07 13:40 | 53.64634 | 10.02061 | 1662 ft | 177 kts | 51° |
| 2026-05-07 13:41 | 53.65408 | 10.03670 | 2570 ft | 176 kts | 52° |
| 2026-05-07 13:41 | 53.66198 | 10.05319 | 3234 ft | 191 kts | 51° |
| 2026-05-07 13:41 | 53.67097 | 10.07139 | 3776 ft | 209 kts | 51° |
| 2026-05-07 13:41 | 53.68083 | 10.09003 | 4494 ft | 217 kts | 44° |
| 2026-05-07 13:42 | 53.69377 | 10.10267 | 4900 ft | 223 kts | 16° |
| 2026-05-07 13:42 | 53.70929 | 10.10156 | 5015 ft | 230 kts | 340° |
| 2026-05-07 13:42 | 53.72190 | 10.08445 | 5408 ft | 242 kts | 307° |
| 2026-05-07 13:42 | 53.73034 | 10.05973 | 6306 ft | 243 kts | 299° |
| 2026-05-07 13:43 | 53.73784 | 10.03415 | 7219 ft | 244 kts | 298° |
| 2026-05-07 13:43 | 53.74509 | 10.00816 | 8101 ft | 246 kts | 293° |
| 2026-05-07 13:43 | 53.74919 | 9.98009 | 8984 ft | 249 kts | 274° |
| 2026-05-07 13:43 | 53.74708 | 9.95119 | 9866 ft | 250 kts | 252° |
| 2026-05-07 13:44 | 53.74091 | 9.92369 | 10673 ft | 251 kts | 247° |
| 2026-05-07 13:44 | 53.73390 | 9.89660 | 11454 ft | 253 kts | 246° |
| 2026-05-07 13:44 | 53.72684 | 9.86962 | 12205 ft | 256 kts | 246° |
| 2026-05-07 13:44 | 53.71966 | 9.84193 | 12992 ft | 259 kts | 247° |
| 2026-05-07 13:45 | 53.71246 | 9.81393 | 13773 ft | 261 kts | 247° |
| 2026-05-07 13:45 | 53.70524 | 9.78569 | 14459 ft | 263 kts | 247° |
| 2026-05-07 13:45 | 53.69797 | 9.75718 | 15136 ft | 266 kts | 247° |
| 2026-05-07 13:45 | 53.69063 | 9.72837 | 15812 ft | 268 kts | 247° |
| 2026-05-07 13:46 | 53.68324 | 9.69938 | 16484 ft | 270 kts | 247° |
| 2026-05-07 13:46 | 53.67576 | 9.67011 | 17173 ft | 272 kts | 247° |
| 2026-05-07 13:46 | 53.66825 | 9.64071 | 17873 ft | 275 kts | 247° |
| 2026-05-07 13:46 | 53.66075 | 9.61139 | 18511 ft | 277 kts | 247° |
| 2026-05-07 13:47 | 53.65241 | 9.58194 | 19120 ft | 280 kts | 241° |
| 2026-05-07 13:47 | 53.64188 | 9.55424 | 19754 ft | 282 kts | 236° |
| 2026-05-07 13:47 | 53.63047 | 9.52727 | 20382 ft | 283 kts | 235° |
| 2026-05-07 13:47 | 53.61885 | 9.50031 | 20968 ft | 286 kts | 234° |
| 2026-05-07 13:48 | 53.60710 | 9.47309 | 21546 ft | 289 kts | 234° |
| 2026-05-07 13:48 | 53.59527 | 9.44565 | 22111 ft | 291 kts | 234° |
| 2026-05-07 13:48 | 53.58330 | 9.41787 | 22657 ft | 295 kts | 234° |
| 2026-05-07 13:48 | 53.57136 | 9.39018 | 23181 ft | 298 kts | 234° |
| 2026-05-07 13:49 | 53.55915 | 9.36186 | 23702 ft | 301 kts | 234° |
| 2026-05-07 13:49 | 53.54680 | 9.33321 | 24127 ft | 304 kts | 234° |
| 2026-05-07 13:49 | 53.53431 | 9.30428 | 24548 ft | 307 kts | 234° |
| 2026-05-07 13:49 | 53.52171 | 9.27514 | 24962 ft | 310 kts | 234° |
| 2026-05-07 13:50 | 53.50897 | 9.24571 | 25378 ft | 312 kts | 234° |
| 2026-05-07 13:50 | 53.49613 | 9.21606 | 25781 ft | 315 kts | 234° |
| 2026-05-07 13:50 | 53.48315 | 9.18614 | 26035 ft | 321 kts | 234° |
| 2026-05-07 13:50 | 53.47430 | 9.16576 | 26068 ft | 331 kts | 234° |